createdAt,value
2022-11-18T00:04:52.754Z,10.50
2022-11-18T00:24:52.524Z,14.70
2022-11-18T00:44:52.238Z,9.40
2022-11-18T01:04:51.978Z,11.40
2022-11-18T01:24:51.711Z,10.60
2022-11-18T01:44:51.506Z,9.60
2022-11-18T02:04:51.177Z,12.70
2022-11-18T02:24:50.911Z,15.50
2022-11-18T02:44:50.646Z,16.40
2022-11-18T03:04:50.395Z,16.30
2022-11-18T03:24:50.111Z,13.10
2022-11-18T03:44:52.496Z,14.30
2022-11-18T04:04:49.572Z,17.60
2022-11-18T04:24:49.323Z,18.30
2022-11-18T04:44:49.067Z,16.40
2022-11-18T05:04:48.782Z,12.90
2022-11-18T05:24:48.556Z,20.30
2022-11-18T05:44:51.823Z,27.90
2022-11-18T06:04:47.983Z,19.70
2022-11-18T06:24:47.723Z,21.30
2022-11-18T06:44:47.590Z,25.00
2022-11-18T07:04:47.186Z,26.40
2022-11-18T07:24:46.916Z,22.70
2022-11-18T07:44:46.652Z,25.10
2022-11-18T08:04:46.480Z,33.70
2022-11-18T08:24:46.118Z,27.30
2022-11-18T08:44:45.832Z,26.80
2022-11-18T09:04:45.593Z,23.00
2022-11-18T09:24:45.297Z,16.30
2022-11-18T09:44:45.041Z,21.80
2022-11-18T10:04:44.785Z,26.70
2022-11-18T10:24:44.516Z,21.80
2022-11-18T10:44:44.255Z,26.00
2022-11-18T11:04:43.980Z,20.80
2022-11-18T11:24:43.766Z,27.00
2022-11-18T11:44:43.444Z,26.20
2022-11-18T12:04:44.183Z,23.40
2022-11-18T12:24:42.908Z,32.80
2022-11-18T12:44:42.643Z,20.60
2022-11-18T13:04:46.686Z,18.10
2022-11-18T13:24:42.117Z,16.90
2022-11-18T13:44:41.875Z,12.90
2022-11-18T14:04:41.597Z,15.00
2022-11-18T14:24:41.325Z,15.60
2022-11-18T14:44:41.067Z,12.10
2022-11-18T15:04:40.820Z,10.10
2022-11-18T15:24:40.541Z,12.10
2022-11-18T15:44:40.374Z,7.60
2022-11-18T16:04:40.042Z,8.70
2022-11-18T16:24:44.153Z,16.60
2022-11-18T16:44:39.524Z,9.70
2022-11-18T17:04:39.249Z,8.40
2022-11-18T17:24:38.956Z,6.90
2022-11-18T17:44:38.729Z,11.40
2022-11-18T18:04:38.417Z,9.90
2022-11-18T18:24:38.152Z,12.30
2022-11-18T18:44:37.883Z,9.30
2022-11-18T19:04:37.615Z,9.60
2022-11-18T19:24:49.365Z,14.30
2022-11-18T19:44:37.092Z,14.30
2022-11-18T20:04:36.827Z,14.10
2022-11-18T20:24:36.568Z,16.30
2022-11-18T20:44:36.341Z,13.50
2022-11-18T21:04:36.078Z,18.60
2022-11-18T21:24:35.835Z,13.20
2022-11-18T21:44:36.549Z,15.90
2022-11-18T22:04:35.296Z,35.40
2022-11-18T22:24:35.052Z,21.60
2022-11-18T22:44:34.796Z,21.60
2022-11-18T23:04:34.527Z,17.50
2022-11-18T23:24:34.288Z,10.30
2022-11-18T23:44:34.010Z,17.30
